createdAt,value
2022-12-25T00:06:28.908Z,119.93
2022-12-25T00:13:00.135Z,86.78
2022-12-25T00:15:28.894Z,99.78
2022-12-25T00:17:57.518Z,84.85
2022-12-25T00:20:26.409Z,93.93
2022-12-25T00:27:38.188Z,77.88
2022-12-25T00:30:24.738Z,78.22
2022-12-25T00:32:53.252Z,89.95
2022-12-25T00:35:22.060Z,94.95
2022-12-25T00:38:00.243Z,96.10
2022-12-25T00:40:31.191Z,95.82
2022-12-25T00:42:59.648Z,83.85
2022-12-25T00:46:42.058Z,81.03
2022-12-25T00:49:11.981Z,70.22
2022-12-25T00:51:40.848Z,77.07
2022-12-25T00:54:09.458Z,78.03
2022-12-25T00:56:41.366Z,81.93
2022-12-25T00:59:10.013Z,81.55
2022-12-25T01:01:39.894Z,81.90
2022-12-25T01:04:09.615Z,84.53
2022-12-25T01:06:39.238Z,107.05
2022-12-25T01:09:26.803Z,97.78
2022-12-25T01:11:55.671Z,88.53
2022-12-25T01:14:24.155Z,72.47
2022-12-25T01:16:53.007Z,77.55
2022-12-25T01:19:21.696Z,76.75
2022-12-25T01:21:50.409Z,74.45
2022-12-25T01:24:19.098Z,61.72
2022-12-25T01:26:48.353Z,71.72
2022-12-25T01:29:19.279Z,64.55
2022-12-25T01:31:48.119Z,64.00
2022-12-25T01:34:16.590Z,64.40
2022-12-25T01:36:48.401Z,63.58
2022-12-25T01:39:18.409Z,70.13
2022-12-25T01:41:48.374Z,100.25
2022-12-25T01:44:16.781Z,100.15
2022-12-25T01:46:47.980Z,71.83
2022-12-25T01:49:23.245Z,81.72
2022-12-25T01:51:58.052Z,93.28
2022-12-25T01:54:35.575Z,81.13
2022-12-25T01:57:09.338Z,75.20
2022-12-25T01:59:37.924Z,69.38
2022-12-25T02:02:08.884Z,69.07
2022-12-25T02:04:43.902Z,72.30
2022-12-25T02:07:20.679Z,64.18
2022-12-25T02:09:49.348Z,74.97
2022-12-25T02:12:25.621Z,70.53
2022-12-25T02:15:05.412Z,66.47
2022-12-25T02:17:38.920Z,67.40
2022-12-25T02:20:21.267Z,69.72
2022-12-25T02:23:23.812Z,79.60
2022-12-25T02:25:58.114Z,82.95
2022-12-25T02:28:32.719Z,83.53
2022-12-25T02:31:14.872Z,93.40
2022-12-25T02:34:05.192Z,83.35
2022-12-25T02:36:56.200Z,105.00
2022-12-25T02:39:51.849Z,99.03
2022-12-25T02:43:31.496Z,86.65
2022-12-25T02:46:22.755Z,65.82
2022-12-25T02:49:14.988Z,58.33
2022-12-25T02:54:55.772Z,73.82
2022-12-25T03:00:34.010Z,69.85
2022-12-25T03:03:26.893Z,74.18
2022-12-25T03:06:18.248Z,59.40
2022-12-25T03:08:50.272Z,75.57
2022-12-25T03:11:33.627Z,144.10
2022-12-25T03:14:24.274Z,70.97
2022-12-25T03:16:56.654Z,100.03
2022-12-25T03:19:48.845Z,117.68
2022-12-25T03:22:42.977Z,83.82
2022-12-25T03:25:30.762Z,97.60
2022-12-25T03:28:00.189Z,99.95
2022-12-25T03:31:13.562Z,85.40
2022-12-25T03:34:10.446Z,81.38
2022-12-25T03:37:07.130Z,138.32
2022-12-25T03:40:19.133Z,97.68
2022-12-25T03:43:14.243Z,97.55
2022-12-25T03:46:05.548Z,79.90
2022-12-25T03:48:59.576Z,116.95
2022-12-25T03:51:54.583Z,140.27
2022-12-25T03:54:46.958Z,149.15
2022-12-25T03:57:37.076Z,82.43
2022-12-25T04:00:25.108Z,123.78
2022-12-25T04:03:12.602Z,89.80
2022-12-25T04:05:59.903Z,89.70
2022-12-25T04:08:47.109Z,139.68
2022-12-25T04:11:36.573Z,88.50
2022-12-25T04:14:23.472Z,88.63
2022-12-25T04:17:10.567Z,96.32
2022-12-25T04:19:57.543Z,81.40
2022-12-25T04:22:44.675Z,96.28
2022-12-25T04:25:34.723Z,92.28
2022-12-25T04:28:23.000Z,91.97
2022-12-25T04:31:09.890Z,87.15
2022-12-25T04:33:56.981Z,87.85
2022-12-25T04:36:25.330Z,71.72
2022-12-25T04:38:54.039Z,84.78
2022-12-25T04:41:22.430Z,86.93
2022-12-25T04:43:51.073Z,99.53
2022-12-25T04:46:19.551Z,77.93
2022-12-25T04:48:48.381Z,85.80
2022-12-25T04:51:23.150Z,96.07
2022-12-25T04:53:53.357Z,91.57
2022-12-25T04:56:22.673Z,68.55
2022-12-25T04:58:53.793Z,78.00
2022-12-25T05:01:22.363Z,81.47
2022-12-25T05:03:54.098Z,71.22
2022-12-25T05:06:23.038Z,74.18
2022-12-25T05:08:51.716Z,66.40
2022-12-25T05:11:20.094Z,81.13
2022-12-25T05:13:48.802Z,68.35
2022-12-25T05:16:19.629Z,67.80
2022-12-25T05:18:51.018Z,71.65
2022-12-25T05:21:20.269Z,79.75
2022-12-25T05:23:53.271Z,70.03
2022-12-25T05:26:25.592Z,74.32
2022-12-25T05:28:55.244Z,61.08
2022-12-25T05:31:23.730Z,62.55
2022-12-25T05:33:53.127Z,57.80
2022-12-25T05:36:24.306Z,61.13
2022-12-25T05:38:52.970Z,68.60
2022-12-25T05:41:21.309Z,72.72
2022-12-25T05:43:50.245Z,78.18
2022-12-25T05:46:18.721Z,59.67
2022-12-25T05:48:47.666Z,65.32
2022-12-25T05:51:16.113Z,78.13
2022-12-25T05:53:44.945Z,164.73
2022-12-25T05:56:13.346Z,102.07
2022-12-25T05:58:42.039Z,92.32
2022-12-25T06:01:19.546Z,98.70
2022-12-25T06:03:49.583Z,82.57
2022-12-25T06:06:18.755Z,95.72
2022-12-25T06:08:47.490Z,78.72
2022-12-25T06:11:16.294Z,87.93
2022-12-25T06:13:44.965Z,76.97
2022-12-25T06:16:13.570Z,82.63
2022-12-25T06:18:46.585Z,83.00
2022-12-25T06:21:16.381Z,87.38
2022-12-25T06:23:45.586Z,86.68
2022-12-25T06:26:16.886Z,78.18
2022-12-25T06:28:45.808Z,70.72
2022-12-25T06:31:17.084Z,70.15
2022-12-25T06:33:47.117Z,98.40
2022-12-25T06:36:26.514Z,71.85
2022-12-25T06:38:56.012Z,73.15
2022-12-25T06:41:27.091Z,87.07
2022-12-25T06:44:01.359Z,84.72
2022-12-25T06:46:30.680Z,81.55
2022-12-25T06:49:03.039Z,93.68
2022-12-25T06:54:06.189Z,100.60
2022-12-25T06:56:37.864Z,116.30
2022-12-25T07:01:57.557Z,107.30
2022-12-25T07:05:09.109Z,108.28
2022-12-25T07:07:28.176Z,90.03
2022-12-25T07:09:57.059Z,88.60
2022-12-25T07:12:25.924Z,85.22
2022-12-25T07:14:55.881Z,95.65
2022-12-25T07:17:26.256Z,105.10
2022-12-25T07:19:56.155Z,87.88
2022-12-25T07:22:24.658Z,69.40
2022-12-25T07:24:53.444Z,75.85
2022-12-25T07:27:41.404Z,68.35
2022-12-25T07:30:10.857Z,79.75
2022-12-25T07:32:39.232Z,62.88
2022-12-25T07:35:08.112Z,83.50
2022-12-25T07:37:39.288Z,62.95
2022-12-25T07:42:43.781Z,73.68
2022-12-25T07:45:12.640Z,68.13
2022-12-25T07:47:41.115Z,81.63
2022-12-25T07:50:51.060Z,81.15
2022-12-25T07:53:23.092Z,89.43
2022-12-25T07:56:21.379Z,86.20
2022-12-25T07:58:50.363Z,76.82
2022-12-25T08:01:27.119Z,87.30
2022-12-25T08:04:01.190Z,95.05
2022-12-25T08:06:33.241Z,85.45
2022-12-25T08:09:11.745Z,85.53
2022-12-25T08:11:45.631Z,105.30
2022-12-25T08:14:14.565Z,105.85
2022-12-25T08:16:49.196Z,115.72
2022-12-25T08:19:21.443Z,122.10
2022-12-25T08:21:50.310Z,111.63
2022-12-25T08:24:18.911Z,101.68
2022-12-25T08:26:50.132Z,116.47
2022-12-25T08:29:18.512Z,143.88
2022-12-25T08:31:47.358Z,171.20
2022-12-25T08:34:22.126Z,158.27
2022-12-25T08:36:52.097Z,146.82
2022-12-25T08:39:22.096Z,158.20
2022-12-25T08:41:53.238Z,136.43
2022-12-25T08:44:26.579Z,122.88
2022-12-25T08:47:12.421Z,119.53
2022-12-25T08:49:42.911Z,99.43
2022-12-25T08:52:16.467Z,104.45
2022-12-25T08:54:53.151Z,99.45
2022-12-25T08:57:25.497Z,89.88
2022-12-25T08:59:57.119Z,121.28
2022-12-25T09:02:30.717Z,117.03
2022-12-25T09:05:01.318Z,106.32
2022-12-25T09:07:30.315Z,116.43
2022-12-25T09:10:15.185Z,106.63
2022-12-25T09:13:29.654Z,98.45
2022-12-25T09:25:00.467Z,115.22
2022-12-25T09:33:12.015Z,118.95
2022-12-25T09:35:43.980Z,141.77
2022-12-25T09:42:19.077Z,135.10
2022-12-25T09:44:51.880Z,136.32
2022-12-25T09:47:28.604Z,120.85
2022-12-25T09:50:32.042Z,96.00
2022-12-25T09:53:09.927Z,76.95
2022-12-25T09:56:06.611Z,76.47
2022-12-25T09:58:38.467Z,79.43
2022-12-25T10:01:25.881Z,83.15
2022-12-25T10:04:03.421Z,83.97
2022-12-25T10:10:20.294Z,88.20
2022-12-25T10:12:57.214Z,105.00
2022-12-25T10:15:50.736Z,96.38
2022-12-25T10:18:38.563Z,85.90
2022-12-25T10:21:17.202Z,89.82
2022-12-25T10:24:20.678Z,95.05
2022-12-25T10:26:52.071Z,92.38
2022-12-25T10:29:21.376Z,90.75
2022-12-25T10:32:00.161Z,88.70
2022-12-25T10:34:30.181Z,75.75
2022-12-25T10:37:07.700Z,82.30
2022-12-25T10:39:46.004Z,76.88
2022-12-25T10:42:36.971Z,83.47
2022-12-25T10:45:10.216Z,79.55
2022-12-25T10:50:28.781Z,104.20
2022-12-25T10:53:04.609Z,106.57
2022-12-25T10:56:00.084Z,122.68
2022-12-25T10:58:29.828Z,159.00
2022-12-25T11:01:02.566Z,172.80
2022-12-25T11:03:44.250Z,214.02
2022-12-25T11:06:25.440Z,221.65
2022-12-25T11:09:05.764Z,221.40
2022-12-25T11:11:38.351Z,287.00
2022-12-25T11:14:25.731Z,239.02
2022-12-25T11:17:10.918Z,205.63
2022-12-25T11:20:20.187Z,244.50
2022-12-25T11:23:00.413Z,238.23
2022-12-25T11:26:01.057Z,180.02
2022-12-25T11:28:31.797Z,163.13
2022-12-25T11:31:24.265Z,198.68
2022-12-25T11:34:07.739Z,123.22
2022-12-25T11:36:53.571Z,118.00
2022-12-25T11:39:35.377Z,115.07
2022-12-25T11:42:21.727Z,132.25
2022-12-25T11:44:59.638Z,120.47
2022-12-25T11:48:04.745Z,92.55
2022-12-25T11:50:43.159Z,127.18
2022-12-25T11:53:46.275Z,125.82
2022-12-25T11:56:28.855Z,120.95
2022-12-25T11:59:18.527Z,104.88
2022-12-25T12:01:53.001Z,103.20
2022-12-25T12:04:43.185Z,90.20
2022-12-25T12:07:25.921Z,123.78
2022-12-25T12:10:10.109Z,101.05
2022-12-25T12:12:57.366Z,107.03
2022-12-25T12:15:39.647Z,80.22
2022-12-25T12:18:48.118Z,84.03
2022-12-25T12:21:18.418Z,108.65
2022-12-25T12:24:04.730Z,93.10
2022-12-25T12:26:41.114Z,95.88
2022-12-25T12:29:27.158Z,91.03
2022-12-25T12:32:03.795Z,106.72
2022-12-25T12:34:42.643Z,84.35
2022-12-25T12:37:24.676Z,75.40
2022-12-25T12:39:56.241Z,93.38
2022-12-25T12:42:35.681Z,95.72
2022-12-25T12:45:19.663Z,79.10
2022-12-25T12:48:02.978Z,76.47
2022-12-25T12:50:35.881Z,81.10
2022-12-25T12:53:24.651Z,80.95
2022-12-25T12:55:53.331Z,74.95
2022-12-25T13:01:51.975Z,74.13
2022-12-25T13:04:41.879Z,86.75
2022-12-25T13:08:04.728Z,92.18
2022-12-25T13:11:05.056Z,94.90
2022-12-25T13:13:40.959Z,84.93
2022-12-25T13:16:40.070Z,83.35
2022-12-25T13:19:14.412Z,85.97
2022-12-25T13:25:21.662Z,82.00
2022-12-25T13:27:57.729Z,80.53
2022-12-25T13:30:29.280Z,62.78
2022-12-25T13:33:01.793Z,69.30
2022-12-25T13:35:32.745Z,66.72
2022-12-25T13:38:06.392Z,52.22
2022-12-25T13:40:35.034Z,58.38
2022-12-25T13:43:05.165Z,72.50
2022-12-25T13:45:41.126Z,60.05
2022-12-25T13:48:22.990Z,108.05
2022-12-25T13:51:04.779Z,176.45
2022-12-25T13:53:35.140Z,182.30
2022-12-25T13:56:07.989Z,224.70
2022-12-25T13:58:39.716Z,466.50
2022-12-25T14:01:16.278Z,406.27
2022-12-25T14:03:48.235Z,316.17
2022-12-25T14:06:21.939Z,264.35
2022-12-25T14:08:52.447Z,333.17
2022-12-25T14:12:04.310Z,335.90
2022-12-25T14:14:33.921Z,257.63
2022-12-25T14:17:13.541Z,267.98
2022-12-25T14:19:42.347Z,268.73
2022-12-25T14:22:35.029Z,168.15
2022-12-25T14:25:15.197Z,133.40
2022-12-25T14:27:52.685Z,103.20
2022-12-25T14:30:23.083Z,99.90
2022-12-25T14:32:56.676Z,95.82
2022-12-25T14:35:35.808Z,86.68
2022-12-25T14:39:01.722Z,94.40
2022-12-25T14:41:53.207Z,115.00
2022-12-25T14:45:04.971Z,99.50
2022-12-25T14:47:53.394Z,101.68
2022-12-25T14:51:18.693Z,131.13
2022-12-25T14:54:20.581Z,146.20
2022-12-25T14:57:51.475Z,114.00
2022-12-25T15:00:45.022Z,102.03
2022-12-25T15:03:43.233Z,100.88
2022-12-25T15:06:21.192Z,134.48
2022-12-25T15:09:01.405Z,179.93
2022-12-25T15:11:31.162Z,191.13
2022-12-25T15:14:02.260Z,164.63
2022-12-25T15:16:41.769Z,176.02
2022-12-25T15:19:27.279Z,175.75
2022-12-25T15:21:59.803Z,251.90
2022-12-25T15:24:43.036Z,215.43
2022-12-25T15:27:24.065Z,181.23
2022-12-25T15:30:10.710Z,139.73
2022-12-25T15:32:42.330Z,172.15
2022-12-25T15:35:19.707Z,172.88
2022-12-25T15:38:00.842Z,165.80
2022-12-25T15:40:29.320Z,149.55
2022-12-25T15:43:11.433Z,137.02
2022-12-25T15:45:58.943Z,119.68
2022-12-25T15:48:28.786Z,113.70
2022-12-25T15:50:57.083Z,118.88
2022-12-25T15:53:43.117Z,122.80
2022-12-25T15:56:12.842Z,113.20
2022-12-25T15:58:41.681Z,120.32
2022-12-25T16:01:38.158Z,102.30
2022-12-25T16:04:06.902Z,94.50
2022-12-25T16:06:38.112Z,89.63
2022-12-25T16:09:07.402Z,91.72
2022-12-25T16:11:43.950Z,98.38
2022-12-25T16:14:43.506Z,111.07
2022-12-25T16:17:14.987Z,114.63
2022-12-25T16:19:47.034Z,125.28
2022-12-25T16:24:57.976Z,120.20
2022-12-25T16:27:26.892Z,105.53
2022-12-25T16:30:05.809Z,96.25
2022-12-25T16:33:03.747Z,87.40
2022-12-25T16:35:38.175Z,71.97
2022-12-25T16:38:08.292Z,71.10
2022-12-25T16:40:37.026Z,73.65
2022-12-25T16:43:24.261Z,76.32
2022-12-25T16:47:27.292Z,78.60
2022-12-25T16:49:48.939Z,85.85
2022-12-25T16:52:41.962Z,93.72
2022-12-25T16:55:29.568Z,102.50
2022-12-25T16:57:59.175Z,82.68
2022-12-25T17:00:53.589Z,79.10
2022-12-25T17:03:47.700Z,85.20
2022-12-25T17:06:51.191Z,87.38
2022-12-25T17:09:43.870Z,69.57
2022-12-25T17:12:47.966Z,65.30
2022-12-25T17:15:28.884Z,57.72
2022-12-25T17:18:10.473Z,62.25
2022-12-25T17:20:52.909Z,61.53
2022-12-25T17:23:21.675Z,64.18
2022-12-25T17:29:21.716Z,70.32
2022-12-25T17:32:57.523Z,73.88
2022-12-25T17:35:29.521Z,85.60
2022-12-25T17:41:55.278Z,78.85
2022-12-25T17:44:26.857Z,86.45
2022-12-25T17:47:29.138Z,89.50
2022-12-25T17:50:00.411Z,94.72
2022-12-25T17:53:45.801Z,84.47
2022-12-25T17:56:40.293Z,89.47
2022-12-25T18:00:17.991Z,81.53
2022-12-25T18:03:42.376Z,83.85
2022-12-25T18:06:29.126Z,82.40
2022-12-25T18:13:07.105Z,74.35
2022-12-25T18:15:49.481Z,70.97
2022-12-25T18:19:24.436Z,68.05
2022-12-25T18:21:56.210Z,68.93
2022-12-25T18:24:51.417Z,79.28
2022-12-25T18:27:28.459Z,68.63
2022-12-25T18:30:00.441Z,62.60
2022-12-25T18:32:29.686Z,80.45
2022-12-25T18:34:58.466Z,98.10
2022-12-25T18:37:39.474Z,90.65
2022-12-25T18:40:11.068Z,81.47
2022-12-25T18:42:43.488Z,83.50
2022-12-25T18:46:25.538Z,86.18
2022-12-25T18:49:33.329Z,89.00
2022-12-25T18:52:48.868Z,74.13
2022-12-25T18:55:18.683Z,71.63
2022-12-25T18:58:29.761Z,88.95
2022-12-25T19:02:01.704Z,81.00
2022-12-25T19:04:20.095Z,70.88
2022-12-25T19:10:21.658Z,74.22
2022-12-25T19:13:08.743Z,78.68
2022-12-25T19:15:46.392Z,74.68
2022-12-25T19:18:15.185Z,80.30
2022-12-25T19:24:28.752Z,87.90
2022-12-25T19:27:02.379Z,81.70
2022-12-25T19:29:32.338Z,73.15
2022-12-25T19:32:05.338Z,74.80
2022-12-25T19:39:25.370Z,57.92
2022-12-25T19:45:54.829Z,75.10
2022-12-25T19:48:24.404Z,79.22
2022-12-25T19:51:17.009Z,66.63
2022-12-25T19:53:46.840Z,59.50
2022-12-25T19:56:25.579Z,61.53
2022-12-25T19:58:57.995Z,53.35
2022-12-25T20:01:53.629Z,57.00
2022-12-25T20:04:30.237Z,54.83
2022-12-25T20:06:58.898Z,55.88
2022-12-25T20:09:27.781Z,60.97
2022-12-25T20:15:42.741Z,65.38
2022-12-25T20:20:59.920Z,80.80
2022-12-25T20:23:29.106Z,81.43
2022-12-25T20:26:08.583Z,70.57
2022-12-25T20:28:37.781Z,77.50
2022-12-25T20:31:10.204Z,66.10
2022-12-25T20:33:40.591Z,61.90
2022-12-25T20:36:12.581Z,66.55
2022-12-25T20:38:44.769Z,55.75
2022-12-25T20:41:27.433Z,71.43
2022-12-25T20:44:04.417Z,61.80
2022-12-25T20:46:49.073Z,62.15
2022-12-25T20:49:18.882Z,53.30
2022-12-25T20:51:47.350Z,60.72
2022-12-25T20:54:16.054Z,66.10
2022-12-25T20:56:55.039Z,63.95
2022-12-25T20:59:29.744Z,55.72
2022-12-25T21:05:13.736Z,55.88
2022-12-25T21:07:44.325Z,56.75
2022-12-25T21:10:18.974Z,63.90
2022-12-25T21:12:48.574Z,60.38
2022-12-25T21:15:17.617Z,57.08
2022-12-25T21:17:46.156Z,62.60
2022-12-25T21:20:16.496Z,57.00
2022-12-25T21:22:45.684Z,62.38
2022-12-25T21:25:23.629Z,59.70
2022-12-25T21:27:55.396Z,57.05
2022-12-25T21:30:27.389Z,55.10
2022-12-25T21:33:27.159Z,48.88
2022-12-25T21:36:08.083Z,53.08
2022-12-25T21:38:45.511Z,50.33
2022-12-25T21:41:15.604Z,49.95
2022-12-25T21:44:09.079Z,56.92
2022-12-25T21:46:38.038Z,53.03
2022-12-25T21:49:09.565Z,55.65
2022-12-25T21:51:56.763Z,57.00
2022-12-25T21:54:35.676Z,55.88
2022-12-25T21:57:15.745Z,49.92
2022-12-25T22:00:01.867Z,53.80
2022-12-25T22:08:17.289Z,50.63
2022-12-25T22:11:46.973Z,50.50
2022-12-25T22:18:40.846Z,56.92
2022-12-25T22:50:23.640Z,51.45
2022-12-25T22:57:54.818Z,49.40
2022-12-25T23:00:42.598Z,62.72
2022-12-25T23:03:17.397Z,52.78
2022-12-25T23:06:26.333Z,60.72
2022-12-25T23:08:56.912Z,51.67
2022-12-25T23:11:57.458Z,49.22
2022-12-25T23:15:11.411Z,48.90
2022-12-25T23:17:59.071Z,49.80
2022-12-25T23:20:46.004Z,50.55
2022-12-25T23:24:34.041Z,44.78
2022-12-25T23:27:02.477Z,50.53
2022-12-25T23:29:39.367Z,47.00
2022-12-25T23:32:20.709Z,48.70
2022-12-25T23:35:00.422Z,48.60
2022-12-25T23:37:33.093Z,50.38
2022-12-25T23:41:17.642Z,49.28
2022-12-25T23:45:46.125Z,51.63
2022-12-25T23:49:09.127Z,46.90
2022-12-25T23:51:56.643Z,41.22
2022-12-25T23:55:10.473Z,45.85
2022-12-25T23:57:40.126Z,43.25
